Overview Statistics Trail Chart Weather Telemetry Raw packets
 

This is the latest recevied weather packets stored in our database for station/object KI5QCM-13. If no packets are shown the sender has not sent any weather packets the latest 10 day(s).

<< 11 12 13 14 15 >>
Time Temp. Humidity Pressure Rain* Wind** Luminosity Snow
1788249655 23.89° C 76% 1015.2 hPa 0 mm - 0 W/m² -
1788249079 24.44° C 75% 1015.1 hPa 0 mm - 0 W/m² -
1788248439 25° C 72% 1015.3 hPa 0 mm - 0 W/m² -
1788247847 25° C 72% 1015.2 hPa 0 mm - 0 W/m² -
1788247271 25° C 71% 1015.2 hPa 0 mm - 0 W/m² -
1788246631 25.56° C 69% 1015.2 hPa 0 mm - 0 W/m² -
1788246039 26.11° C 68% 1015.3 hPa 0 mm - 0 W/m² -
1788245463 26.11° C 67% 1015.3 hPa 0 mm - 0 W/m² -
1788244824 26.11° C 67% 1015.3 hPa 0 mm - 0 W/m² -
1788244237 26.11° C 66% 1015.2 hPa 0 mm - 0 W/m² -
1788243655 26.11° C 67% 1015.3 hPa 0 mm - 0 W/m² -
1788243079 25.56° C 69% 1015.3 hPa 0 mm - 0 W/m² -
1788242433 25° C 70% 1015.2 hPa 0 mm - 0 W/m² -
1788241837 24.44° C 72% 1015.1 hPa 0 mm - 0 W/m² -
1788241256 25.56° C 68% 1014.9 hPa 0 mm - 0 W/m² -
1788240663 25.56° C 68% 1014.9 hPa 0 mm - 0 W/m² -
1788240024 25.56° C 68% 1014.9 hPa 0 mm - 0 W/m² -
1788239448 25.56° C 67% 1014.8 hPa 0 mm - 0 W/m² -
1788238871 25.56° C 66% 1014.7 hPa 0 mm - 0 W/m² -
1788238280 25.56° C 66% 1014.6 hPa 0 mm - 0 W/m² -
1788237640 26.11° C 66% 1014.8 hPa 0 mm - 0 W/m² -
1788237064 26.11° C 65% 1014.7 hPa 0 mm - 0 W/m² -
1788236423 26.11° C 65% 1014.6 hPa 0 mm - 0 W/m² -
1788235896 26.11° C 64% 1014.6 hPa 0 mm - 0 W/m² -
1788235240 26.67° C 62% 1014.5 hPa 0 mm - 0 W/m² -

* Rain latest hour (hover to see other rain measurements)
** Current wind speed in m/s (hover to see current wind gust speed)